Time;durP1;ratioP1;P1;durP2;ratioP2;P2;SDS_P1;SDS_P2;PMS_P1;PMS_P2;Temp;Humidity;BMP_temperature;BMP_pressure;BME280_temperature;BME280_humidity;BME280_pressure;Samples;Min_cycle;Max_cycle;Signal;HPM_P1;HPM_P2
2022/10/24 00:00:50;;;;;;;7.63;6.00;;;;;;;14.14;79.49;95580.03;5093793;28;20984;-76
2022/10/24 00:03:17;;;;;;;8.47;5.00;;;;;;;14.16;79.35;95578.09;5094234;28;20793;-75
2022/10/24 00:05:47;;;;;;;7.60;4.60;;;;;;;14.18;79.46;95576.19;5093539;28;20495;-76
2022/10/24 00:08:14;;;;;;;9.57;5.90;;;;;;;14.18;79.50;95567.44;5093865;28;20447;-76
2022/10/24 00:10:43;;;;;;;8.30;5.60;;;;;;;14.19;79.36;95577.88;5093457;28;20447;-76
2022/10/24 00:13:10;;;;;;;6.10;5.23;;;;;;;14.22;79.14;95574.94;5093428;28;20530;-76
2022/10/24 00:15:37;;;;;;;13.23;4.87;;;;;;;14.24;79.15;95573.00;5093632;28;20502;-77
2022/10/24 00:18:04;;;;;;;8.57;5.30;;;;;;;14.20;79.53;95574.25;5093226;28;20463;-76
2022/10/24 00:20:31;;;;;;;4.63;4.10;;;;;;;14.21;79.24;95572.44;5041311;28;20951;-76
2022/10/24 00:23:00;;;;;;;4.97;4.37;;;;;;;14.22;79.44;95564.38;5093464;28;20448;-76
2022/10/24 00:25:26;;;;;;;9.40;4.37;;;;;;;14.25;79.42;95569.41;5092928;28;21027;-76
2022/10/24 00:27:53;;;;;;;5.00;4.20;;;;;;;14.26;79.28;95571.06;5093149;28;20999;-76
2022/10/24 00:30:20;;;;;;;5.23;4.73;;;;;;;14.24;79.27;95572.16;5093079;28;20931;-76
2022/10/24 00:32:47;;;;;;;5.53;4.33;;;;;;;14.18;79.17;95567.44;5093511;28;20906;-76
2022/10/24 00:35:13;;;;;;;10.53;6.63;;;;;;;14.03;79.02;95577.53;5093301;28;20859;-76
2022/10/24 00:37:40;;;;;;;9.63;6.20;;;;;;;13.97;79.27;95578.06;5093067;28;20459;-76
2022/10/24 00:40:11;;;;;;;11.00;8.07;;;;;;;13.81;79.60;95564.53;5092900;28;20452;-76
2022/10/24 00:42:38;;;;;;;10.27;9.23;;;;;;;13.49;80.99;95572.56;5092735;28;20442;-76
2022/10/24 00:45:40;;;;;;;12.93;8.67;;;;;;;13.24;82.08;95565.91;5057506;28;20452;-76
2022/10/24 00:48:19;;;;;;;10.43;7.50;;;;;;;13.17;81.93;95565.59;5092734;28;20443;-76
2022/10/24 00:50:47;;;;;;;11.40;7.97;;;;;;;13.15;81.82;95561.41;5043179;28;20448;-76
2022/10/24 00:53:15;;;;;;;11.23;8.23;;;;;;;13.16;81.81;95565.69;5092591;28;20484;-76
2022/10/24 00:55:46;;;;;;;11.80;8.40;;;;;;;13.16;82.12;95557.78;5092997;28;20517;-76
2022/10/24 00:58:13;;;;;;;10.40;7.30;;;;;;;13.10;81.91;95560.94;5092957;28;20493;-76
2022/10/24 01:00:40;;;;;;;9.73;8.13;;;;;;;13.14;82.18;95565.84;5092205;28;20443;-76
2022/10/24 01:03:07;;;;;;;11.87;7.13;;;;;;;13.14;82.50;95565.84;5092589;28;20497;-77
2022/10/24 01:05:41;;;;;;;11.57;8.20;;;;;;;13.10;82.52;95566.22;5092491;28;20866;-76
2022/10/24 01:08:20;;;;;;;11.67;7.30;;;;;;;13.11;82.72;95566.09;5092823;28;20449;-76
2022/10/24 01:10:55;;;;;;;11.37;8.10;;;;;;;13.08;82.02;95562.88;5092448;28;20465;-76
2022/10/24 01:13:31;;;;;;;13.40;8.70;;;;;;;13.09;82.31;95567.19;5092374;28;20439;-76
2022/10/24 01:16:06;;;;;;;10.03;7.63;;;;;;;12.99;82.27;95573.19;5092586;28;20446;-75
2022/10/24 01:18:38;;;;;;;12.50;8.70;;;;;;;13.00;82.69;95568.78;5042101;28;20818;-76
2022/10/24 01:21:23;;;;;;;11.53;7.67;;;;;;;13.02;82.84;95567.72;5092551;28;20451;-76
2022/10/24 01:24:31;;;;;;;14.57;9.03;;;;;;;13.09;82.39;95575.09;5092245;28;20440;-76
2022/10/24 01:27:37;;;;;;;10.23;7.50;;;;;;;13.09;81.38;95575.09;5010107;28;20491;-75
2022/10/24 01:30:08;;;;;;;10.50;8.00;;;;;;;13.07;81.08;95577.03;4932634;29;20460;-75
2022/10/24 01:32:41;;;;;;;11.10;7.67;;;;;;;13.04;81.69;95570.22;4932582;29;20443;-76
2022/10/24 01:35:23;;;;;;;10.47;7.17;;;;;;;13.03;82.00;95573.81;4932542;29;20463;-76
2022/10/24 01:37:58;;;;;;;11.67;7.83;;;;;;;13.03;81.99;95573.81;4932463;29;20494;-76
2022/10/24 01:40:31;;;;;;;9.37;7.03;;;;;;;13.00;81.45;95569.59;4932466;29;20453;-77
2022/10/24 01:43:02;;;;;;;11.70;8.17;;;;;;;12.99;81.46;95567.09;4932608;29;20854;-76
2022/10/24 01:45:35;;;;;;;8.33;7.33;;;;;;;13.00;81.46;95574.03;4932655;29;20908;-76
2022/10/24 01:48:05;;;;;;;10.73;7.90;;;;;;;13.00;81.15;95563.50;4932404;29;21167;-76
2022/10/24 01:50:35;;;;;;;10.87;8.43;;;;;;;12.99;81.37;95569.72;4932268;29;20462;-76
2022/10/24 01:53:03;;;;;;;13.50;8.87;;;;;;;12.97;81.54;95574.28;4932216;29;20466;-76
2022/10/24 01:55:32;;;;;;;12.30;9.27;;;;;;;12.96;81.74;95567.34;4932436;29;20447;-75
2022/10/24 01:57:59;;;;;;;11.30;8.30;;;;;;;12.98;82.19;95561.00;4885226;29;20451;-76
2022/10/24 02:00:26;;;;;;;10.60;7.33;;;;;;;12.99;82.83;95565.31;4948066;28;20460;-77
2022/10/24 02:02:57;;;;;;;8.23;7.07;;;;;;;12.98;83.25;95554.88;4990132;28;20444;-77
2022/10/24 02:05:28;;;;;;;7.17;6.10;;;;;;;12.97;84.02;95559.31;4990089;28;20452;-77
2022/10/24 02:08:01;;;;;;;6.97;6.37;;;;;;;12.94;84.14;95558.75;5077549;28;20487;-75
2022/10/24 02:10:31;;;;;;;7.90;5.47;;;;;;;12.96;83.74;95549.75;5091597;28;20439;-75
2022/10/24 02:13:03;;;;;;;13.23;5.90;;;;;;;12.99;84.71;95567.94;5093165;28;20467;-76
2022/10/24 02:15:33;;;;;;;6.67;4.83;;;;;;;12.98;84.84;95561.00;5095865;28;20489;-75
2022/10/24 02:18:02;;;;;;;6.67;5.50;;;;;;;12.99;85.26;95564.47;5095420;28;20452;-75
2022/10/24 02:20:35;;;;;;;6.40;5.37;;;;;;;13.01;84.84;95566.03;5095930;28;20461;-75
2022/10/24 02:23:10;;;;;;;7.37;4.40;;;;;;;13.02;85.05;95562.44;5095552;28;20442;-76
2022/10/24 02:25:42;;;;;;;6.10;5.23;;;;;;;13.02;85.75;95562.44;5095644;28;20450;-75
2022/10/24 02:28:13;;;;;;;10.10;5.60;;;;;;;13.01;85.34;95563.41;5095927;28;20605;-76
2022/10/24 02:30:43;;;;;;;6.37;5.43;;;;;;;13.06;86.34;95559.53;5095362;28;20451;-76
2022/10/24 02:33:12;;;;;;;6.13;5.13;;;;;;;13.11;85.98;95565.25;5095901;28;20444;-75
2022/10/24 02:35:40;;;;;;;5.77;4.57;;;;;;;13.14;85.64;95559.72;5095521;28;20455;-75
2022/10/24 02:38:14;;;;;;;7.40;5.30;;;;;;;13.13;85.03;95571.22;5095345;28;20492;-76
2022/10/24 02:40:43;;;;;;;5.07;4.60;;;;;;;13.13;85.31;95569.44;5095226;28;20803;-76
2022/10/24 02:43:12;;;;;;;6.90;4.90;;;;;;;13.15;85.62;95561.41;5095265;28;20875;-75
2022/10/24 02:45:40;;;;;;;4.87;4.47;;;;;;;13.15;85.36;95561.41;5095562;28;20455;-76
2022/10/24 02:48:11;;;;;;;5.10;4.70;;;;;;;13.12;85.02;95564.28;5059578;28;20502;-75
2022/10/24 02:50:41;;;;;;;5.53;5.00;;;;;;;13.07;84.61;95569.13;5095410;28;20439;-75
2022/10/24 02:53:10;;;;;;;9.47;5.53;;;;;;;12.96;84.33;95562.94;5094823;28;20544;-75
2022/10/24 02:55:37;;;;;;;8.57;6.00;;;;;;;12.97;83.64;95569.03;5094639;28;20470;-76
2022/10/24 02:58:04;;;;;;;6.73;5.30;;;;;;;12.68;83.70;95564.38;5095163;28;21050;-75
2022/10/24 03:00:30;;;;;;;8.73;6.60;;;;;;;12.64;84.42;95562.97;5094935;28;20530;-75
2022/10/24 03:02:57;;;;;;;6.50;5.80;;;;;;;12.60;84.54;95561.53;5095018;28;20440;-75
2022/10/24 03:05:24;;;;;;;10.23;7.07;;;;;;;12.53;84.89;95573.53;5094700;28;20930;-75
2022/10/24 03:07:52;;;;;;;7.90;5.40;;;;;;;12.54;84.81;95567.31;5094679;28;20479;-75
2022/10/24 03:10:19;;;;;;;7.53;5.67;;;;;;;12.58;85.00;95565.28;5094622;28;20505;-75
2022/10/24 03:12:46;;;;;;;9.43;5.83;;;;;;;12.54;84.77;95562.06;5094985;28;20817;-75
2022/10/24 03:15:14;;;;;;;8.63;6.17;;;;;;;12.51;84.91;95561.47;5094550;28;20456;-75
2022/10/24 03:17:41;;;;;;;6.70;6.00;;;;;;;12.45;85.18;95562.81;5094646;28;20451;-75
2022/10/24 03:20:09;;;;;;;7.50;6.30;;;;;;;12.47;84.48;95560.88;5094928;28;20432;-76
2022/10/24 03:22:35;;;;;;;9.80;7.30;;;;;;;12.49;84.97;95553.69;5094294;28;20448;-76
2022/10/24 03:25:05;;;;;;;11.47;7.00;;;;;;;12.51;85.51;95556.22;5094052;28;20451;-76
2022/10/24 03:27:32;;;;;;;10.93;8.07;;;;;;;12.49;84.14;95553.69;5058664;28;20487;-76
2022/10/24 03:29:59;;;;;;;11.60;7.93;;;;;;;12.47;84.31;95555.63;5094382;28;20522;-76
2022/10/24 03:32:27;;;;;;;11.70;8.13;;;;;;;12.45;84.66;95559.34;5094325;28;20432;-76
2022/10/24 03:34:53;;;;;;;9.90;7.43;;;;;;;12.42;83.83;95563.03;5094349;28;20447;-76
2022/10/24 03:37:20;;;;;;;13.87;8.60;;;;;;;12.38;83.69;95566.88;5042129;28;20945;-76
2022/10/24 03:39:47;;;;;;;11.63;7.43;;;;;;;12.37;83.99;95563.41;5094397;28;20496;-76
2022/10/24 03:42:15;;;;;;;16.03;8.40;;;;;;;12.30;83.81;95570.16;5094166;28;21003;-76
2022/10/24 03:44:42;;;;;;;11.23;7.60;;;;;;;12.27;84.65;95567.75;5094383;28;20448;-76
2022/10/24 03:47:09;;;;;;;10.87;7.40;;;;;;;12.24;84.01;95565.38;5094070;28;20478;-76
2022/10/24 03:49:36;;;;;;;11.30;7.27;;;;;;;12.25;84.08;95563.59;5093753;28;20456;-76
2022/10/24 03:52:02;;;;;;;12.73;7.73;;;;;;;12.23;84.39;95561.06;5093684;28;21000;-76
2022/10/24 03:54:29;;;;;;;28.60;7.90;;;;;;;12.22;85.15;95562.03;5093826;28;20833;-75
2022/10/24 03:56:56;;;;;;;13.33;7.73;;;;;;;12.20;84.28;95563.97;5094063;28;20778;-77
2022/10/24 03:59:24;;;;;;;18.30;8.87;;;;;;;12.19;84.54;95564.09;5093955;28;20447;-77
2022/10/24 04:01:51;;;;;;;12.90;8.90;;;;;;;12.19;85.09;95566.72;5093546;28;20952;-76
2022/10/24 04:04:18;;;;;;;11.07;8.13;;;;;;;12.17;85.31;95560.75;5093588;28;20447;-76
2022/10/24 04:06:45;;;;;;;10.23;7.40;;;;;;;12.14;85.19;95559.16;5093853;28;20838;-76
2022/10/24 04:09:12;;;;;;;9.30;7.67;;;;;;;12.14;85.17;95563.59;5093431;28;20946;-76
2022/10/24 04:11:39;;;;;;;11.90;9.70;;;;;;;12.09;84.52;95559.53;5093801;28;20806;-75
2022/10/24 04:14:06;;;;;;;10.53;7.80;;;;;;;12.05;84.25;95550.22;5093545;28;20455;-76
2022/10/24 04:16:34;;;;;;;12.50;7.80;;;;;;;12.03;84.85;95548.69;5042113;28;20459;-75
2022/10/24 04:19:01;;;;;;;13.93;7.90;;;;;;;12.01;85.10;95551.44;5093340;28;20443;-75
2022/10/24 04:21:28;;;;;;;21.63;9.23;;;;;;;11.97;84.69;95546.53;5093459;28;20446;-75
2022/10/24 04:23:55;;;;;;;14.53;10.23;;;;;;;11.87;85.96;95543.00;5095700;28;21000;-75
2022/10/24 04:26:21;;;;;;;19.30;9.50;;;;;;;11.88;85.61;95542.88;5094066;28;20862;-75
2022/10/24 04:28:48;;;;;;;17.73;7.90;;;;;;;11.89;86.13;95559.47;5093211;28;20885;-75
2022/10/24 04:31:16;;;;;;;9.10;7.80;;;;;;;11.91;86.13;95552.31;5092659;28;20447;-77
2022/10/24 04:33:44;;;;;;;10.43;7.83;;;;;;;11.90;86.96;95550.63;5092975;28;20459;-77
2022/10/24 04:36:13;;;;;;;10.73;8.13;;;;;;;11.93;86.63;95547.75;5056189;28;20439;-77
2022/10/24 04:38:40;;;;;;;11.87;7.57;;;;;;;11.97;87.34;95549.19;5093070;28;20454;-75
2022/10/24 04:41:07;;;;;;;21.83;9.27;;;;;;;11.97;87.95;95552.63;5092654;28;20443;-76
2022/10/24 04:43:34;;;;;;;18.17;8.50;;;;;;;11.98;88.04;95556.09;5092736;28;20450;-75
2022/10/24 04:46:01;;;;;;;15.30;10.23;;;;;;;12.01;87.73;95555.84;5092625;28;20456;-78
2022/10/24 04:48:28;;;;;;;12.10;8.60;;;;;;;12.09;86.99;95566.59;5092773;28;20486;-77
2022/10/24 04:50:56;;;;;;;12.67;8.10;;;;;;;12.27;96.06;95559.88;5092720;28;20509;-76
2022/10/24 04:53:23;;;;;;;17.40;8.40;;;;;;;12.26;91.68;95567.88;5092911;28;20970;-76
2022/10/24 04:55:50;;;;;;;15.10;9.20;;;;;;;12.23;89.27;95574.22;5092705;28;20801;-76
2022/10/24 04:58:17;;;;;;;19.83;9.20;;;;;;;12.26;88.68;95581.03;5092141;28;20448;-76
2022/10/24 05:00:47;;;;;;;12.70;7.77;;;;;;;12.31;88.28;95582.34;5093339;28;20444;-76
2022/10/24 05:03:14;;;;;;;10.13;7.47;;;;;;;12.37;87.74;95575.75;5093020;28;20448;-77
2022/10/24 05:05:41;;;;;;;8.87;6.40;;;;;;;12.43;86.92;95584.94;5104277;28;20458;-77
2022/10/24 05:08:09;;;;;;;18.60;10.40;;;;;;;12.49;87.33;95580.03;5113233;28;20478;-77
2022/10/24 05:10:36;;;;;;;9.90;7.27;;;;;;;12.59;87.37;95575.66;5113199;28;20450;-76
2022/10/24 05:13:02;;;;;;;7.47;6.60;;;;;;;12.75;87.48;95569.16;5112954;28;20443;-77
2022/10/24 05:15:29;;;;;;;9.93;7.17;;;;;;;12.88;87.45;95569.81;5113152;28;20454;-77
2022/10/24 05:17:56;;;;;;;11.70;6.10;;;;;;;13.02;86.75;95572.97;5113013;28;20489;-77
2022/10/24 05:20:23;;;;;;;8.57;5.20;;;;;;;13.14;86.40;95581.63;5112352;28;20451;-77
2022/10/24 05:22:50;;;;;;;10.40;6.33;;;;;;;13.25;85.75;95586.03;5106986;28;20940;-77
2022/10/24 05:25:18;;;;;;;5.93;5.20;;;;;;;13.38;85.60;95578.78;5102429;28;20455;-76
2022/10/24 05:27:45;;;;;;;8.70;6.70;;;;;;;13.67;84.28;95583.38;5107648;28;20514;-77
2022/10/24 05:30:13;;;;;;;11.90;6.20;;;;;;;13.90;83.19;95585.69;5109587;28;20459;-76
2022/10/24 05:32:39;;;;;;;10.30;6.50;;;;;;;14.17;81.90;95581.59;5112107;28;20451;-76
2022/10/24 05:35:08;;;;;;;11.13;7.60;;;;;;;14.55;80.88;95594.06;5112899;28;20458;-76
2022/10/24 05:37:34;;;;;;;10.07;6.00;;;;;;;14.92;78.35;95588.13;5112720;28;20469;-76
2022/10/24 05:40:01;;;;;;;13.83;6.13;;;;;;;15.28;77.06;95590.03;5112423;28;20497;-76
2022/10/24 05:42:29;;;;;;;10.00;6.10;;;;;;;15.62;74.99;95581.66;5076544;28;20434;-76
2022/10/24 05:44:56;;;;;;;8.70;7.03;;;;;;;15.88;73.72;95581.81;5112530;28;20948;-76
2022/10/24 05:47:23;;;;;;;13.23;6.60;;;;;;;16.18;73.17;95584.19;5114260;28;20978;-76
2022/10/24 05:49:49;;;;;;;12.40;7.63;;;;;;;16.44;71.07;95579.03;5116444;28;20434;-76
2022/10/24 05:52:16;;;;;;;14.00;8.93;;;;;;;16.65;70.32;95587.53;5116328;28;20473;-76
2022/10/24 05:54:43;;;;;;;32.60;11.93;;;;;;;16.86;69.25;95578.50;5116449;28;20431;-77
2022/10/24 05:57:10;;;;;;;19.50;9.32;;;;;;;17.03;68.79;95585.59;5062246;28;20423;-76
2022/10/24 05:59:38;;;;;;;15.60;9.47;;;;;;;17.17;67.58;95598.34;5116452;28;20447;-76
2022/10/24 06:02:04;;;;;;;18.13;8.60;;;;;;;17.25;68.03;95593.09;5116524;28;20878;-76
2022/10/24 06:04:31;;;;;;;16.30;8.77;;;;;;;17.29;67.58;95597.09;5116451;28;21001;-76
2022/10/24 06:06:58;;;;;;;14.27;7.33;;;;;;;17.38;67.61;95610.44;5116136;28;20450;-76
2022/10/24 06:09:25;;;;;;;22.03;11.07;;;;;;;17.30;66.55;95601.41;5116042;28;20489;-76
2022/10/24 06:11:51;;;;;;;17.53;11.70;;;;;;;17.08;67.04;95612.53;5116547;28;20449;-77
2022/10/24 06:14:18;;;;;;;19.43;11.10;;;;;;;16.96;67.15;95616.38;5115939;28;20446;-76
2022/10/24 06:16:46;;;;;;;27.07;13.27;;;;;;;16.70;68.22;95616.28;5115909;28;20544;-77
2022/10/24 06:19:13;;;;;;;24.43;13.90;;;;;;;16.39;68.97;95619.22;5115989;28;20499;-77
2022/10/24 06:21:40;;;;;;;20.23;11.13;;;;;;;16.18;70.51;95618.59;5063379;28;20445;-76
2022/10/24 06:24:07;;;;;;;18.87;10.30;;;;;;;16.19;70.91;95616.78;5063261;28;20440;-76
2022/10/24 06:26:34;;;;;;;17.80;13.20;;;;;;;16.43;71.05;95614.44;5116121;28;20448;-76
2022/10/24 06:29:00;;;;;;;18.50;12.37;;;;;;;16.57;68.77;95603.34;5115607;28;20479;-77
2022/10/24 06:31:27;;;;;;;25.30;13.20;;;;;;;16.32;70.69;95614.66;5116059;28;20462;-77
2022/10/24 06:33:55;;;;;;;20.77;10.83;;;;;;;16.61;70.75;95620.63;5115937;28;20457;-77
2022/10/24 06:36:22;;;;;;;17.77;8.87;;;;;;;16.95;68.91;95622.66;5116420;28;20452;-76
2022/10/24 06:38:49;;;;;;;14.60;9.33;;;;;;;17.32;67.79;95627.78;5115670;28;20805;-77
2022/10/24 06:41:17;;;;;;;21.03;8.90;;;;;;;17.64;65.11;95622.75;5115514;28;20492;-77
2022/10/24 06:43:44;;;;;;;14.70;9.60;;;;;;;17.72;65.07;95618.50;5115928;28;20533;-77
2022/10/24 06:46:14;;;;;;;12.03;8.47;;;;;;;17.90;64.96;95622.75;5115768;28;20443;-77
2022/10/24 06:48:41;;;;;;;18.13;9.60;;;;;;;18.02;63.15;95630.47;5115748;28;20534;-77
2022/10/24 06:51:09;;;;;;;13.00;8.80;;;;;;;18.06;62.73;95629.16;5096192;28;20496;-76
2022/10/24 06:53:36;;;;;;;11.90;8.90;;;;;;;18.07;62.79;95628.19;5115545;28;20471;-77
2022/10/24 06:56:05;;;;;;;12.43;9.07;;;;;;;17.97;63.18;95628.31;5115647;28;20937;-76
2022/10/24 06:58:32;;;;;;;14.93;9.10;;;;;;;17.97;63.83;95636.28;5078486;28;20469;-77
2022/10/24 07:00:59;;;;;;;14.40;8.23;;;;;;;18.05;63.75;95638.97;5114991;28;20470;-77
2022/10/24 07:03:26;;;;;;;11.20;7.97;;;;;;;17.85;63.81;95634.84;5115376;28;20439;-76
2022/10/24 07:05:53;;;;;;;16.50;9.00;;;;;;;17.77;64.31;95637.47;5115324;28;20450;-76
2022/10/24 07:08:21;;;;;;;10.50;7.80;;;;;;;17.70;65.11;95629.28;5115310;28;20908;-76
2022/10/24 07:10:48;;;;;;;18.80;8.40;;;;;;;17.62;65.56;95629.19;5115020;28;20438;-76
2022/10/24 07:13:14;;;;;;;13.20;8.20;;;;;;;17.37;66.42;95630.84;5114856;28;20461;-76
2022/10/24 07:15:41;;;;;;;12.40;8.70;;;;;;;17.39;66.81;95626.22;5114863;28;20966;-76
2022/10/24 07:18:14;;;;;;;23.37;8.47;;;;;;;17.42;67.09;95633.84;5114583;28;20451;-76
2022/10/24 07:20:41;;;;;;;13.63;8.90;;;;;;;17.29;67.86;95631.59;5115153;28;20470;-77
2022/10/24 07:23:08;;;;;;;17.30;8.17;;;;;;;17.09;68.20;95622.13;5114831;28;20450;-76
2022/10/24 07:25:37;;;;;;;19.53;9.07;;;;;;;17.11;68.70;95622.81;5114627;28;20442;-76
2022/10/24 07:28:05;;;;;;;13.03;8.00;;;;;;;17.01;69.86;95624.69;5114619;28;20990;-76
2022/10/24 07:30:31;;;;;;;11.93;7.63;;;;;;;17.01;70.52;95622.88;5078807;28;20449;-76
2022/10/24 07:32:58;;;;;;;14.60;8.10;;;;;;;16.88;71.67;95616.28;5114830;28;20507;-78
2022/10/24 07:35:25;;;;;;;17.50;8.40;;;;;;;16.92;71.33;95625.63;5114551;28;20511;-76
2022/10/24 07:37:52;;;;;;;10.10;8.50;;;;;;;16.89;70.72;95617.97;5114643;28;20495;-76
2022/10/24 07:40:19;;;;;;;13.33;9.33;;;;;;;16.97;70.96;95612.72;5078372;28;20987;-76
2022/10/24 07:42:48;;;;;;;14.90;7.90;;;;;;;17.04;70.37;95619.09;5078491;28;20438;-76
2022/10/24 07:45:15;;;;;;;14.47;8.20;;;;;;;16.99;71.18;95616.91;5114292;28;20820;-77
2022/10/24 07:47:42;;;;;;;10.10;7.53;;;;;;;16.90;70.70;95617.81;5114427;28;20453;-76
2022/10/24 07:50:09;;;;;;;17.03;7.80;;;;;;;17.02;71.62;95623.72;5114193;28;20476;-76
2022/10/24 07:52:36;;;;;;;9.33;8.10;;;;;;;16.90;70.92;95622.28;5114223;28;21027;-77
2022/10/24 07:55:03;;;;;;;16.57;7.77;;;;;;;16.91;71.01;95624.78;5114161;28;20522;-76
2022/10/24 07:57:29;;;;;;;13.37;8.10;;;;;;;17.14;71.24;95625.16;5114063;28;20450;-77
2022/10/24 07:59:58;;;;;;;13.77;7.27;;;;;;;17.22;70.12;95621.75;5061574;28;20508;-77
2022/10/24 08:02:24;;;;;;;12.13;7.13;;;;;;;17.45;70.17;95622.09;5114127;28;20453;-76
2022/10/24 08:04:51;;;;;;;17.50;8.37;;;;;;;17.57;68.15;95620.84;5113945;28;20451;-77
2022/10/24 08:07:18;;;;;;;11.60;7.53;;;;;;;17.62;68.89;95618.56;5113925;28;20546;-77
2022/10/24 08:09:46;;;;;;;15.23;8.53;;;;;;;17.70;68.54;95616.03;5113009;28;20482;-76
2022/10/24 08:12:13;;;;;;;10.87;7.60;;;;;;;17.81;68.23;95618.41;5113419;28;20848;-76
2022/10/24 08:14:41;;;;;;;17.67;7.50;;;;;;;17.82;68.09;95616.59;5113843;28;20447;-76
2022/10/24 08:17:10;;;;;;;11.47;7.70;;;;;;;17.77;66.76;95610.91;5114026;28;20499;-77
2022/10/24 08:19:40;;;;;;;13.70;9.20;;;;;;;17.67;67.54;95608.38;5113536;28;20458;-76
2022/10/24 08:22:08;;;;;;;14.80;8.57;;;;;;;17.90;67.09;95611.31;5113724;28;20449;-77
2022/10/24 08:24:35;;;;;;;14.80;7.70;;;;;;;18.10;66.60;95609.28;5113446;28;20982;-76
2022/10/24 08:27:02;;;;;;;11.93;7.00;;;;;;;18.10;65.42;95609.28;5113339;28;20451;-77
2022/10/24 08:29:29;;;;;;;9.57;7.57;;;;;;;17.95;65.93;95609.88;5113578;28;20478;-76
2022/10/24 08:31:56;;;;;;;19.03;7.43;;;;;;;18.12;65.32;95607.28;5113547;28;20442;-77
2022/10/24 08:34:24;;;;;;;18.20;8.20;;;;;;;18.45;64.94;95605.59;5113563;28;20443;-76
2022/10/24 08:36:51;;;;;;;16.63;7.20;;;;;;;18.66;63.85;95600.72;5094338;28;20858;-77
2022/10/24 08:39:19;;;;;;;14.70;7.80;;;;;;;18.76;63.18;95601.41;5113403;28;20439;-76
2022/10/24 08:41:50;;;;;;;12.00;7.40;;;;;;;18.74;63.01;95600.72;5094244;28;20471;-76
2022/10/24 08:44:21;;;;;;;10.43;7.17;;;;;;;18.44;63.23;95588.81;5113497;28;20620;-77
2022/10/24 08:46:55;;;;;;;9.13;6.80;;;;;;;18.67;62.66;95593.56;5113236;28;20486;-77
2022/10/24 08:49:33;;;;;;;8.30;6.50;;;;;;;18.97;63.13;95590.31;5113068;28;20835;-76
2022/10/24 08:52:03;;;;;;;10.20;6.63;;;;;;;19.15;62.07;95590.16;5113113;28;20487;-77
2022/10/24 08:54:36;;;;;;;6.40;5.47;;;;;;;19.35;61.22;95588.00;5113315;28;20479;-76
2022/10/24 08:57:04;;;;;;;9.73;5.63;;;;;;;19.47;60.08;95581.34;5112964;28;20921;-77
2022/10/24 08:59:34;;;;;;;6.83;6.10;;;;;;;19.65;60.02;95573.19;5077226;28;20504;-77
2022/10/24 09:02:06;;;;;;;15.47;6.87;;;;;;;19.59;59.65;95580.03;5113167;28;20450;-77
2022/10/24 09:04:41;;;;;;;11.17;6.80;;;;;;;19.69;59.36;95569.22;5112848;28;20438;-77
2022/10/24 09:07:17;;;;;;;12.83;6.67;;;;;;;19.90;59.25;95573.97;5112919;28;20449;-77
2022/10/24 09:09:47;;;;;;;10.97;6.60;;;;;;;20.11;59.44;95572.41;5113149;28;20486;-77
2022/10/24 09:12:16;;;;;;;13.03;6.80;;;;;;;20.25;58.47;95560.22;5112946;28;20563;-77
2022/10/24 09:14:44;;;;;;;14.90;5.70;;;;;;;20.17;57.15;95559.41;5112810;28;20446;-77
2022/10/24 09:17:14;;;;;;;11.90;6.50;;;;;;;20.04;57.45;95565.28;5112764;28;20499;-76
2022/10/24 09:19:46;;;;;;;10.80;5.80;;;;;;;20.11;58.06;95559.09;5112709;28;20922;-77
2022/10/24 09:22:13;;;;;;;7.27;5.53;;;;;;;20.19;57.58;95563.53;5112412;28;20438;-77
2022/10/24 09:24:44;;;;;;;6.30;4.80;;;;;;;20.25;57.69;95552.22;5112651;28;20443;-76
2022/10/24 09:27:15;;;;;;;11.23;5.87;;;;;;;20.34;57.81;95553.84;5112473;28;20444;-76
2022/10/24 09:29:42;;;;;;;7.73;5.20;;;;;;;20.29;57.07;95550.88;5112555;28;20876;-77
2022/10/24 09:32:16;;;;;;;14.80;5.87;;;;;;;20.29;56.70;95548.19;5112397;28;20454;-77
2022/10/24 09:34:44;;;;;;;6.90;5.60;;;;;;;20.15;57.28;95553.41;5112474;28;20480;-76
2022/10/24 09:37:29;;;;;;;7.17;6.50;;;;;;;20.24;57.95;95547.03;5112629;28;20443;-76
2022/10/24 09:40:12;;;;;;;9.82;6.30;;;;;;;20.46;57.64;95551.63;5110370;28;20447;-77
2022/10/24 09:42:40;;;;;;;9.07;5.10;;;;;;;20.54;57.14;95542.78;5076199;28;20230;-77
2022/10/24 09:45:37;;;;;;;9.00;6.00;;;;;;;20.62;56.19;95542.72;5112684;28;20492;-77
2022/10/24 09:48:10;;;;;;;9.13;5.20;;;;;;;20.46;57.29;95537.47;5029062;28;20837;-77
2022/10/24 09:50:44;;;;;;;10.33;5.70;;;;;;;20.55;57.10;95539.94;5029645;28;20485;-77
2022/10/24 09:53:22;;;;;;;8.37;6.23;;;;;;;20.65;57.38;95537.03;5029391;28;20478;-77
2022/10/24 09:55:53;;;;;;;6.90;6.20;;;;;;;20.72;56.96;95540.66;5029420;28;20446;-77
2022/10/24 09:58:22;;;;;;;11.10;6.33;;;;;;;20.60;56.48;95536.75;5029361;28;20442;-76
2022/10/24 10:00:58;;;;;;;9.60;6.03;;;;;;;20.78;57.14;95531.94;5029386;28;20439;-77
2022/10/24 10:03:26;;;;;;;15.37;6.30;;;;;;;20.88;56.72;95521.06;5029417;28;20438;-77
2022/10/24 10:05:55;;;;;;;23.73;11.13;;;;;;;20.79;55.69;95530.94;5029264;28;20480;-77
2022/10/24 10:08:25;;;;;;;12.77;6.90;;;;;;;20.77;55.48;95527.59;5029218;28;20454;-77
2022/10/24 10:11:04;;;;;;;9.53;6.80;;;;;;;20.86;56.54;95523.91;5029226;28;20460;-77
2022/10/24 10:13:37;;;;;;;21.07;7.90;;;;;;;20.89;56.44;95510.19;5029190;28;20505;-77
2022/10/24 10:16:06;;;;;;;8.67;6.90;;;;;;;20.92;57.03;95519.69;5029156;28;20462;-76
2022/10/24 10:18:41;;;;;;;28.93;10.00;;;;;;;21.00;56.22;95512.44;5029267;28;20869;-77
2022/10/24 10:21:14;;;;;;;15.30;7.27;;;;;;;21.03;56.46;95514.75;5029251;28;20537;-77
2022/10/24 10:23:44;;;;;;;10.63;6.70;;;;;;;20.98;55.52;95510.97;5065920;28;20451;-76
2022/10/24 10:26:18;;;;;;;13.80;5.87;;;;;;;21.04;55.41;95497.72;5112101;28;20439;-75
2022/10/24 10:28:54;;;;;;;11.03;6.43;;;;;;;21.08;56.04;95502.69;5111891;28;20439;-75
2022/10/24 10:31:24;;;;;;;14.33;6.67;;;;;;;21.12;55.35;95498.69;5112276;28;20437;-75
2022/10/24 10:34:04;;;;;;;9.80;6.50;;;;;;;21.17;56.01;95501.63;5112806;28;20449;-76
2022/10/24 10:36:40;;;;;;;9.10;6.63;;;;;;;21.26;56.58;95492.56;5116002;28;20462;-76
2022/10/24 10:39:28;;;;;;;6.97;5.43;;;;;;;21.34;58.52;95489.81;5115483;28;20818;-76
2022/10/24 10:42:01;;;;;;;11.00;8.10;;;;;;;21.41;55.69;95484.59;5115755;28;20434;-76
2022/10/24 10:44:45;;;;;;;12.60;7.30;;;;;;;21.49;57.87;95482.66;5115614;28;20461;-75
2022/10/24 10:47:24;;;;;;;15.23;6.20;;;;;;;21.56;55.88;95483.59;5115394;28;20467;-75
2022/10/24 10:49:57;;;;;;;22.10;6.73;;;;;;;21.39;55.26;95478.59;5115161;28;20474;-76
2022/10/24 10:52:31;;;;;;;10.63;6.50;;;;;;;21.44;54.33;95474.38;5115393;28;20474;-76
2022/10/24 10:55:18;;;;;;;10.80;7.50;;;;;;;21.53;55.05;95475.13;5079402;28;20427;-76
2022/10/24 10:57:53;;;;;;;11.80;6.70;;;;;;;21.59;54.58;95469.03;5115391;28;20512;-76
2022/10/24 11:00:23;;;;;;;13.50;6.47;;;;;;;21.60;54.10;95465.34;5115094;28;20438;-76
2022/10/24 11:03:07;;;;;;;26.43;7.90;;;;;;;21.72;54.85;95458.56;5115502;28;20447;-76
2022/10/24 11:05:44;;;;;;;29.97;6.67;;;;;;;21.79;54.45;95462.13;5115316;28;20443;-76
2022/10/24 11:08:26;;;;;;;31.60;7.53;;;;;;;21.82;54.15;95459.09;5115219;28;20521;-76
2022/10/24 11:10:56;;;;;;;14.83;8.73;;;;;;;21.87;53.76;95445.16;5114834;28;20940;-76
2022/10/24 11:13:29;;;;;;;21.90;8.30;;;;;;;21.91;54.08;95446.44;5114628;28;20451;-76
2022/10/24 11:16:00;;;;;;;23.33;7.77;;;;;;;21.93;53.78;95447.09;5078801;28;20446;-76
2022/10/24 11:18:32;;;;;;;31.23;7.80;;;;;;;22.02;56.78;95435.31;5114960;28;20447;-75
2022/10/24 11:21:03;;;;;;;13.33;6.23;;;;;;;22.07;53.32;95446.28;5078893;28;20431;-76
2022/10/24 11:23:37;;;;;;;12.73;4.90;;;;;;;22.10;53.82;95429.88;5114652;28;20866;-76
2022/10/24 11:26:08;;;;;;;19.17;7.50;;;;;;;22.14;52.51;95441.84;5114711;28;20450;-76
2022/10/24 11:28:41;;;;;;;58.43;13.63;;;;;;;22.21;52.83;95434.72;5114466;28;20438;-76
2022/10/24 11:31:14;;;;;;;13.23;6.80;;;;;;;22.15;53.09;95435.47;5114480;28;20539;-76
2022/10/24 11:33:45;;;;;;;16.50;6.77;;;;;;;22.21;53.15;95423.19;5114347;28;20526;-76
2022/10/24 11:36:19;;;;;;;15.20;8.70;;;;;;;22.29;52.88;95427.63;5114357;28;20450;-76
2022/10/24 11:38:53;;;;;;;11.60;6.10;;;;;;;22.27;52.65;95413.63;5114512;28;20439;-75